Blaze, Kentucky
Current Conditions -  °F | °C
As of 2:53 AM on Saturday 25 Oct 2014 (Local Time) from KJKL Reporting Station
Clear Clear  
Wind Chill: 44°   Ceiling: Unl
Heat Index: 46°   Visibility: 10mi
Dew Point: 41°   Wind: 5mph
Humidity: 83%   Direction: 180°S
Pressure: 30.07"   Gusts: NA
Location:  37.937°N, 83.2694°W
Report Text: KJKL 250653Z AUTO 18004KT 10SM CLR 08/05 A3007 RMK AO2 SLP178 T00780050
Loading
Personal Weather Stations






























Interactive Weather Map
Tropical Storm Tracking
New forecast layout! Learn more

10-Day Weather Forecast

Advertisements
Track Severe Weather on mobile